Time;durP1;ratioP1;P1;durP2;ratioP2;P2;SDS_P1;SDS_P2;PMS_P1;PMS_P2;Temp;Humidity;BMP_temperature;BMP_pressure;BME280_temperature;BME280_humidity;BME280_pressure;Samples;Min_cycle;Max_cycle;Signal;HPM_P1;HPM_P2
2022/09/25 00:00:12;;;;;;;1.50;1.40;;;13.40;99.90;;;;;;5091772;28;20630;-64
2022/09/25 00:02:38;;;;;;;4.35;1.77;;;13.40;99.90;;;;;;5086665;28;20176;-64
2022/09/25 00:05:04;;;;;;;2.40;1.90;;;13.40;99.90;;;;;;5079619;28;20204;-64
2022/09/25 00:07:29;;;;;;;3.13;2.20;;;13.40;99.90;;;;;;5082772;28;20176;-64
2022/09/25 00:09:55;;;;;;;3.00;2.80;;;13.50;99.90;;;;;;5092068;28;20200;-65
2022/09/25 00:12:20;;;;;;;4.25;2.85;;;13.60;99.90;;;;;;5113476;27;20544;-64
2022/09/25 00:14:50;;;;;;;4.78;2.10;;;13.50;99.90;;;;;;5084407;27;20195;-65
2022/09/25 00:17:16;;;;;;;3.38;2.03;;;13.40;99.90;;;;;;5102722;27;20206;-65
2022/09/25 00:19:51;;;;;;;1.88;1.77;;;13.50;99.90;;;;;;5105348;28;20188;-65
2022/09/25 00:22:21;;;;;;;2.33;1.70;;;13.60;99.90;;;;;;5108008;27;20663;-65
2022/09/25 00:24:47;;;;;;;3.72;2.40;;;13.50;99.90;;;;;;5107921;28;20203;-65
2022/09/25 00:27:14;;;;;;;3.45;1.88;;;13.50;99.90;;;;;;5095142;28;20241;-65
2022/09/25 00:29:40;;;;;;;5.68;2.13;;;13.40;99.90;;;;;;5101115;28;20183;-65
2022/09/25 00:32:08;;;;;;;7.75;2.15;;;13.50;99.90;;;;;;5060654;28;20655;-65
2022/09/25 00:34:35;;;;;;;1.80;1.70;;;13.70;99.90;;;;;;5104361;27;20179;-65
2022/09/25 00:37:01;;;;;;;5.15;2.05;;;13.70;99.90;;;;;;5097777;28;20216;-65
2022/09/25 00:39:26;;;;;;;3.33;1.70;;;13.60;99.90;;;;;;5101511;27;20548;-65
2022/09/25 00:41:53;;;;;;;3.60;1.88;;;13.50;99.90;;;;;;5078766;28;20184;-65
2022/09/25 00:44:55;;;;;;;5.80;2.13;;;13.50;99.90;;;;;;5095326;28;20194;-64
2022/09/25 00:47:43;;;;;;;10.35;2.30;;;13.60;99.90;;;;;;5104207;28;20649;-65
2022/09/25 00:50:21;;;;;;;1.45;1.35;;;13.50;99.90;;;;;;5100327;28;20183;-65
2022/09/25 00:52:48;;;;;;;4.22;1.70;;;13.50;99.90;;;;;;5103365;28;20263;-66
2022/09/25 00:55:14;;;;;;;4.03;2.22;;;13.50;99.90;;;;;;5079578;27;21155;-65
2022/09/25 00:57:44;;;;;;;2.28;1.73;;;13.50;99.90;;;;;;5105858;28;20199;-65
2022/09/25 01:00:12;;;;;;;3.70;2.10;;;13.50;99.90;;;;;;5087203;28;20184;-66
2022/09/25 01:02:44;;;;;;;4.93;1.50;;;13.40;99.90;;;;;;5095082;28;20191;-66
2022/09/25 01:05:15;;;;;;;6.43;2.38;;;13.40;99.90;;;;;;5074965;28;20215;-65
2022/09/25 01:07:46;;;;;;;1.17;1.08;;;13.40;99.90;;;;;;5106803;27;20192;-65
2022/09/25 01:10:13;;;;;;;8.18;1.75;;;13.40;99.90;;;;;;5120304;27;20200;-65
2022/09/25 01:12:42;;;;;;;4.53;2.28;;;13.40;99.90;;;;;;5113417;28;20180;-65
2022/09/25 01:15:11;;;;;;;2.30;1.40;;;13.40;99.90;;;;;;5094542;28;20516;-65
2022/09/25 01:18:02;;;;;;;2.35;1.58;;;13.30;99.90;;;;;;5113169;28;20292;-65
2022/09/25 01:20:28;;;;;;;7.00;2.20;;;13.10;99.90;;;;;;5100962;28;20209;-65
2022/09/25 01:23:15;;;;;;;7.10;2.10;;;13.20;99.90;;;;;;5101096;28;20185;-65
2022/09/25 01:26:22;;;;;;;2.20;1.58;;;13.10;99.90;;;;;;5083593;28;20180;-65
2022/09/25 01:29:13;;;;;;;4.28;1.60;;;13.00;99.90;;;;;;5095754;28;20266;-65
2022/09/25 01:32:14;;;;;;;6.97;2.00;;;12.90;99.90;;;;;;5115077;28;20176;-65
2022/09/25 01:34:51;;;;;;;1.25;1.17;;;12.80;99.90;;;;;;5113117;28;20175;-65
2022/09/25 01:37:25;;;;;;;3.78;1.48;;;12.70;99.90;;;;;;5099836;28;20226;-65
2022/09/25 01:40:04;;;;;;;4.90;1.70;;;12.70;99.90;;;;;;5094069;28;20652;-66
2022/09/25 01:42:41;;;;;;;1.80;1.52;;;12.70;99.90;;;;;;5089281;28;20203;-65
2022/09/25 01:45:12;;;;;;;1.45;1.27;;;12.80;99.90;;;;;;5109643;28;20175;-65
2022/09/25 01:47:38;;;;;;;6.40;2.05;;;12.80;99.90;;;;;;5100737;28;20212;-65
2022/09/25 01:50:13;;;;;;;3.72;2.83;;;12.80;99.90;;;;;;5075536;28;20196;-65
2022/09/25 01:52:44;;;;;;;3.08;1.67;;;12.80;99.90;;;;;;5078219;28;20593;-65
2022/09/25 01:55:16;;;;;;;3.85;1.45;;;12.60;99.90;;;;;;5094838;28;20226;-65
2022/09/25 01:57:50;;;;;;;2.17;1.42;;;12.50;99.90;;;;;;5100293;28;20673;-65
2022/09/25 02:00:20;;;;;;;1.25;1.25;;;12.50;99.90;;;;;;5086160;28;20211;-67
2022/09/25 02:02:56;;;;;;;2.40;1.65;;;12.50;99.90;;;;;;5081631;28;20176;-65
2022/09/25 02:05:33;;;;;;;2.45;2.05;;;12.50;99.90;;;;;;5107800;28;20629;-65
2022/09/25 02:08:18;;;;;;;2.17;2.08;;;12.60;99.90;;;;;;5108137;28;20185;-65
2022/09/25 02:10:54;;;;;;;8.45;2.17;;;12.60;99.90;;;;;;5102421;28;20196;-65
2022/09/25 02:13:22;;;;;;;5.93;3.15;;;12.50;99.90;;;;;;5109977;28;20262;-65
2022/09/25 02:15:58;;;;;;;3.08;1.90;;;12.40;99.90;;;;;;5097708;28;20255;-65
2022/09/25 02:21:20;;;;;;;4.32;1.92;;;12.30;99.90;;;;;;5112891;28;20214;-66
2022/09/25 02:23:52;;;;;;;2.83;1.77;;;12.30;99.90;;;;;;5109196;28;20624;-65
2022/09/25 02:26:27;;;;;;;1.27;1.25;;;12.20;99.90;;;;;;5093902;28;20262;-66
2022/09/25 02:28:54;;;;;;;7.68;2.60;;;12.20;99.90;;;;;;5087595;28;20195;-66
2022/09/25 02:31:25;;;;;;;6.15;1.55;;;12.10;99.90;;;;;;5093162;28;20747;-66
2022/09/25 02:33:51;;;;;;;7.93;3.35;;;12.20;99.90;;;;;;5088932;28;20594;-65
2022/09/25 02:36:22;;;;;;;4.45;1.58;;;12.20;99.90;;;;;;5094995;28;20290;-66
2022/09/25 02:38:50;;;;;;;6.57;2.47;;;12.10;99.90;;;;;;5101596;28;20226;-66
2022/09/25 02:41:38;;;;;;;4.75;2.50;;;12.10;99.90;;;;;;5089525;28;20191;-66
2022/09/25 02:44:25;;;;;;;1.73;1.50;;;12.10;99.90;;;;;;5076319;28;20191;-65
2022/09/25 02:47:09;;;;;;;8.25;2.22;;;12.10;99.90;;;;;;5082959;28;20199;-66
2022/09/25 02:49:49;;;;;;;4.63;2.60;;;12.10;99.90;;;;;;5095865;28;20172;-65
2022/09/25 02:53:00;;;;;;;2.28;2.13;;;12.10;99.90;;;;;;5112136;27;20214;-66
2022/09/25 02:55:39;;;;;;;2.55;2.25;;;12.00;99.90;;;;;;5091336;28;20761;-65
2022/09/25 02:58:14;;;;;;;3.80;1.92;;;11.90;99.90;;;;;;5110002;27;20663;-66
2022/09/25 03:00:42;;;;;;;8.30;3.25;;;11.90;99.90;;;;;;5106275;28;20236;-66
2022/09/25 03:03:12;;;;;;;3.58;2.70;;;11.80;99.90;;;;;;5105186;28;20215;-66
2022/09/25 03:05:38;;;;;;;7.25;2.08;;;11.80;99.90;;;;;;5100321;28;20641;-66
2022/09/25 03:10:49;;;;;;;4.50;2.20;;;11.80;99.90;;;;;;5100225;28;20572;-66
2022/09/25 03:13:22;;;;;;;10.90;3.92;;;11.80;99.90;;;;;;5098772;27;20184;-66
2022/09/25 03:15:51;;;;;;;2.95;2.00;;;11.80;99.90;;;;;;5120512;27;20210;-67
2022/09/25 03:18:18;;;;;;;2.42;2.05;;;11.80;99.90;;;;;;5115703;27;20172;-65
2022/09/25 03:20:44;;;;;;;2.92;2.35;;;11.80;99.90;;;;;;5093032;27;20175;-65
2022/09/25 03:23:10;;;;;;;3.05;2.00;;;11.80;99.90;;;;;;5095208;28;20188;-66
2022/09/25 03:25:36;;;;;;;5.45;2.33;;;11.80;99.90;;;;;;5054781;28;20233;-66
2022/09/25 03:28:03;;;;;;;2.22;1.75;;;11.80;99.90;;;;;;5077535;27;20206;-66
2022/09/25 03:30:29;;;;;;;3.75;2.38;;;11.80;99.90;;;;;;5077327;28;20259;-66
2022/09/25 03:32:55;;;;;;;2.72;2.08;;;11.80;99.90;;;;;;5108833;28;20267;-66
2022/09/25 03:35:20;;;;;;;2.58;1.95;;;11.80;99.90;;;;;;5087831;27;20525;-66
2022/09/25 03:37:46;;;;;;;2.20;1.63;;;11.70;99.90;;;;;;5113756;27;20627;-66
2022/09/25 03:40:12;;;;;;;3.92;2.55;;;11.70;99.90;;;;;;5102064;27;20199;-66
2022/09/25 03:42:37;;;;;;;2.40;1.90;;;11.70;99.90;;;;;;5053740;28;20177;-66
2022/09/25 03:45:05;;;;;;;7.63;2.13;;;11.70;99.90;;;;;;5080345;27;20595;-66
2022/09/25 03:47:30;;;;;;;7.43;2.35;;;11.60;99.90;;;;;;5088229;28;20263;-66
2022/09/25 03:49:56;;;;;;;4.68;1.73;;;11.60;99.90;;;;;;5082759;28;20267;-66
2022/09/25 03:52:22;;;;;;;3.28;2.00;;;11.60;99.90;;;;;;5077240;28;20214;-66
2022/09/25 03:54:47;;;;;;;2.72;2.03;;;11.60;99.90;;;;;;5115123;27;20191;-66
2022/09/25 03:57:13;;;;;;;10.40;2.33;;;11.60;99.90;;;;;;5082813;28;20598;-66
2022/09/25 03:59:39;;;;;;;3.72;2.10;;;11.60;99.90;;;;;;5080566;28;20208;-66
2022/09/25 04:02:05;;;;;;;9.65;2.03;;;11.60;99.90;;;;;;5109650;27;20637;-66
2022/09/25 04:04:31;;;;;;;3.30;2.33;;;11.60;99.90;;;;;;5079334;28;20629;-67
2022/09/25 04:06:57;;;;;;;5.28;2.17;;;11.60;99.90;;;;;;5111387;27;20226;-66
2022/09/25 04:09:22;;;;;;;2.42;2.00;;;11.60;99.90;;;;;;5098659;27;20631;-66
2022/09/25 04:11:49;;;;;;;2.40;1.85;;;11.60;99.90;;;;;;5096400;28;20180;-66
2022/09/25 04:14:14;;;;;;;2.60;1.92;;;11.60;99.90;;;;;;5114120;27;20246;-66
2022/09/25 04:16:40;;;;;;;3.20;2.05;;;11.50;99.90;;;;;;5073671;28;20208;-66
2022/09/25 04:19:06;;;;;;;3.55;2.10;;;11.50;99.90;;;;;;5089886;28;20188;-66
2022/09/25 04:21:31;;;;;;;4.82;2.33;;;11.50;99.90;;;;;;5088846;28;20183;-66
2022/09/25 04:26:41;;;;;;;6.90;2.50;;;11.50;99.90;;;;;;5086048;27;20183;-66
2022/09/25 04:29:07;;;;;;;7.43;3.10;;;11.40;99.90;;;;;;5095489;28;20179;-66
2022/09/25 04:31:33;;;;;;;3.08;2.35;;;11.40;99.90;;;;;;5113445;27;20183;-65
2022/09/25 04:34:00;;;;;;;2.28;2.10;;;11.30;99.90;;;;;;5095499;28;20184;-66
2022/09/25 04:36:26;;;;;;;5.45;2.50;;;11.30;99.90;;;;;;5112877;27;20336;-66
2022/09/25 04:38:52;;;;;;;7.05;2.53;;;11.30;99.90;;;;;;5113025;28;20699;-66
2022/09/25 04:41:18;;;;;;;4.55;3.03;;;11.30;99.90;;;;;;5090294;28;20625;-66
2022/09/25 04:43:44;;;;;;;3.10;2.90;;;11.30;99.90;;;;;;5073144;28;20592;-66
2022/09/25 04:46:12;;;;;;;5.53;3.83;;;11.30;99.90;;;;;;5079059;28;20192;-66
2022/09/25 04:48:38;;;;;;;14.32;4.47;;;11.20;99.90;;;;;;5108557;28;20177;-66
2022/09/25 04:51:04;;;;;;;7.28;5.38;;;11.20;99.90;;;;;;5094995;28;20656;-65
2022/09/25 04:53:34;;;;;;;6.30;4.75;;;11.10;99.90;;;;;;5108028;28;20184;-66
2022/09/25 04:56:06;;;;;;;7.28;4.80;;;11.10;99.90;;;;;;5115468;27;20233;-66
2022/09/25 04:58:32;;;;;;;7.93;5.18;;;11.10;99.90;;;;;;5114055;27;20194;-67
2022/09/25 05:01:07;;;;;;;5.57;4.18;;;11.00;99.90;;;;;;5112809;28;20180;-66
2022/09/25 05:03:33;;;;;;;9.95;4.95;;;11.00;99.90;;;;;;5109617;28;20175;-66
2022/09/25 05:05:59;;;;;;;8.63;3.97;;;10.90;99.90;;;;;;5089495;28;20184;-66
2022/09/25 05:08:26;;;;;;;6.65;3.72;;;10.90;99.90;;;;;;5085797;28;20277;-66
2022/09/25 05:10:52;;;;;;;6.10;4.38;;;10.90;99.90;;;;;;5088027;28;20208;-66
2022/09/25 05:13:17;;;;;;;7.97;3.80;;;10.80;99.90;;;;;;5064436;28;20181;-66
2022/09/25 05:15:43;;;;;;;4.30;2.77;;;10.70;99.90;;;;;;5076173;28;20222;-67
2022/09/25 05:18:16;;;;;;;9.57;5.03;;;10.70;99.90;;;;;;5077602;28;20215;-66
2022/09/25 05:20:42;;;;;;;8.20;3.17;;;10.70;99.90;;;;;;5113067;28;20270;-66
2022/09/25 05:23:08;;;;;;;3.97;3.20;;;10.60;99.90;;;;;;5109844;28;20305;-67
2022/09/25 05:25:33;;;;;;;9.87;2.83;;;10.70;99.90;;;;;;5064300;28;20259;-66
2022/09/25 05:28:00;;;;;;;6.23;3.60;;;10.70;99.90;;;;;;5058622;28;20192;-66
2022/09/25 05:30:29;;;;;;;8.23;4.27;;;10.60;99.90;;;;;;5091808;28;20183;-66
2022/09/25 05:32:58;;;;;;;4.10;3.27;;;10.60;99.90;;;;;;5093426;28;20704;-66
2022/09/25 05:35:26;;;;;;;5.17;3.90;;;10.70;99.90;;;;;;5078092;28;20177;-66
2022/09/25 05:37:52;;;;;;;3.70;3.27;;;10.60;99.90;;;;;;5076086;28;20668;-66
2022/09/25 05:40:20;;;;;;;7.93;3.63;;;10.60;99.90;;;;;;5109829;28;20215;-66
2022/09/25 05:42:46;;;;;;;3.40;3.07;;;10.60;99.90;;;;;;5112731;28;20179;-66
2022/09/25 05:45:17;;;;;;;4.83;3.37;;;10.60;99.90;;;;;;5102206;28;20188;-66
2022/09/25 05:47:43;;;;;;;5.90;4.70;;;10.60;99.90;;;;;;5108682;28;20640;-66
2022/09/25 05:50:12;;;;;;;11.77;4.90;;;10.60;99.90;;;;;;5098975;28;20530;-66
2022/09/25 05:52:38;;;;;;;7.70;3.77;;;10.60;99.90;;;;;;5105208;28;20195;-66
2022/09/25 05:55:05;;;;;;;7.90;4.00;;;10.60;99.90;;;;;;5103440;28;20707;-66
2022/09/25 05:57:34;;;;;;;5.20;3.17;;;10.60;99.90;;;;;;5100566;28;20200;-66
2022/09/25 06:00:02;;;;;;;5.23;3.40;;;10.60;99.90;;;;;;5077575;28;20188;-66
2022/09/25 06:02:27;;;;;;;7.17;4.07;;;10.60;99.90;;;;;;5086521;28;20180;-66
2022/09/25 06:04:53;;;;;;;5.53;3.97;;;10.60;99.90;;;;;;5109892;28;20176;-66
2022/09/25 06:07:19;;;;;;;5.33;4.00;;;10.60;99.90;;;;;;5087550;28;20266;-66
2022/09/25 06:09:44;;;;;;;5.73;4.37;;;10.60;99.90;;;;;;5092310;28;20732;-66
2022/09/25 06:12:10;;;;;;;9.95;4.50;;;10.70;99.90;;;;;;5112662;28;20184;-66
2022/09/25 06:14:36;;;;;;;7.90;4.60;;;10.70;99.90;;;;;;5090673;28;20188;-67
2022/09/25 06:17:02;;;;;;;7.10;4.10;;;10.80;99.90;;;;;;5080358;28;20203;-66
2022/09/25 06:19:28;;;;;;;11.27;5.25;;;10.80;99.90;;;;;;5082916;28;20529;-66
2022/09/25 06:21:56;;;;;;;11.93;6.18;;;10.80;99.90;;;;;;5106688;27;20187;-66
2022/09/25 06:24:22;;;;;;;9.18;4.88;;;10.90;99.90;;;;;;5115906;28;20232;-66
2022/09/25 06:26:48;;;;;;;8.93;4.68;;;10.90;99.90;;;;;;5115628;27;20196;-66
2022/09/25 06:29:13;;;;;;;8.38;5.15;;;10.90;99.90;;;;;;5080990;28;20193;-66
2022/09/25 06:31:39;;;;;;;8.45;4.93;;;10.90;99.90;;;;;;5104618;28;20208;-66
2022/09/25 06:34:05;;;;;;;5.05;4.30;;;11.00;99.90;;;;;;5082622;28;20192;-66
2022/09/25 06:36:31;;;;;;;7.93;5.03;;;11.00;99.90;;;;;;5085578;28;20207;-66
2022/09/25 06:38:57;;;;;;;6.38;4.40;;;11.10;99.90;;;;;;5094835;27;20415;-66
2022/09/25 06:41:23;;;;;;;5.60;4.25;;;11.10;99.90;;;;;;5112722;27;20613;-66
2022/09/25 06:43:50;;;;;;;5.90;4.38;;;11.10;99.90;;;;;;5099998;28;20180;-66
2022/09/25 06:46:17;;;;;;;5.63;4.30;;;11.10;99.90;;;;;;5115019;28;20629;-66
2022/09/25 06:48:43;;;;;;;7.15;4.32;;;11.20;99.90;;;;;;5105304;27;20697;-66
2022/09/25 06:51:09;;;;;;;7.90;4.68;;;11.20;99.90;;;;;;5095957;27;20181;-66
2022/09/25 06:53:35;;;;;;;8.88;4.93;;;11.20;99.90;;;;;;5072594;28;20241;-66
2022/09/25 06:56:01;;;;;;;11.00;5.78;;;11.30;99.90;;;;;;5094320;28;20185;-66
2022/09/25 06:58:29;;;;;;;12.82;5.47;;;11.40;99.90;;;;;;5089350;28;20279;-66
2022/09/25 07:00:55;;;;;;;11.10;7.93;;;11.50;99.90;;;;;;5115742;27;20187;-66
2022/09/25 07:06:09;;;;;;;15.43;10.77;;;11.70;99.90;;;;;;5088394;28;20191;-66
2022/09/25 07:08:35;;;;;;;18.80;12.52;;;12.30;99.90;;;;;;5097175;28;20211;-66
2022/09/25 07:11:02;;;;;;;15.57;9.55;;;13.90;99.90;;;;;;5095276;27;20199;-66
2022/09/25 07:13:30;;;;;;;13.98;9.82;;;15.40;99.90;;;;;;5104986;27;20179;-66
2022/09/25 07:15:58;;;;;;;13.35;8.38;;;16.70;99.90;;;;;;5099120;28;20259;-66
2022/09/25 07:18:24;;;;;;;19.25;8.10;;;18.10;99.90;;;;;;5119478;27;20198;-67
2022/09/25 07:20:51;;;;;;;7.32;5.05;;;19.30;99.90;;;;;;5066285;28;20656;-67
2022/09/25 07:23:19;;;;;;;5.53;5.03;;;20.50;99.90;;;;;;5112794;28;20172;-64
2022/09/25 07:25:46;;;;;;;7.93;5.35;;;21.40;99.90;;;;;;5114658;27;20207;-64
2022/09/25 07:28:13;;;;;;;7.38;4.38;;;22.20;99.90;;;;;;5113734;28;20172;-65
2022/09/25 07:30:40;;;;;;;4.18;3.78;;;22.50;99.90;;;;;;5085002;28;20203;-65
2022/09/25 07:33:05;;;;;;;5.13;3.63;;;22.70;99.90;;;;;;5082051;28;20698;-65
2022/09/25 07:35:33;;;;;;;6.65;3.60;;;23.20;99.90;;;;;;5081207;28;20188;-65
2022/09/25 07:37:59;;;;;;;3.78;3.45;;;23.60;99.90;;;;;;5095412;27;20201;-65
2022/09/25 07:40:27;;;;;;;8.07;3.33;;;23.90;99.90;;;;;;5093542;28;20199;-66
2022/09/25 07:43:02;;;;;;;6.95;4.07;;;24.30;99.90;;;;;;5099425;27;20188;-66
2022/09/25 07:45:28;;;;;;;3.80;1.83;;;24.70;99.90;;;;;;5079314;27;20697;-65
2022/09/25 07:47:59;;;;;;;4.38;2.65;;;24.50;99.90;;;;;;5096764;28;20217;-66
2022/09/25 07:50:29;;;;;;;3.63;1.75;;;24.60;99.90;;;;;;5063862;28;20523;-66
2022/09/25 07:52:55;;;;;;;2.20;1.75;;;24.30;99.90;;;;;;5109351;27;20176;-68
2022/09/25 07:55:21;;;;;;;2.80;1.92;;;24.10;99.90;;;;;;5102461;27;20212;-66
2022/09/25 07:57:49;;;;;;;7.47;2.67;;;24.10;99.90;;;;;;5082964;28;20207;-66
2022/09/25 08:00:16;;;;;;;12.52;2.13;;;24.40;99.90;;;;;;5089891;27;20184;-66
2022/09/25 08:02:41;;;;;;;1.70;1.60;;;23.90;99.90;;;;;;5114625;27;20497;-66
2022/09/25 08:05:08;;;;;;;2.25;2.05;;;24.00;99.90;;;;;;5096407;27;20187;-66
2022/09/25 08:07:34;;;;;;;4.28;1.80;;;23.70;99.90;;;;;;5096273;28;20262;-66
2022/09/25 08:09:59;;;;;;;2.25;1.60;;;24.30;99.90;;;;;;5096154;28;20290;-66
2022/09/25 08:12:25;;;;;;;3.92;1.55;;;24.40;99.90;;;;;;5079046;28;20176;-65
2022/09/25 08:14:51;;;;;;;13.27;1.95;;;24.90;99.90;;;;;;5093752;28;20191;-66
2022/09/25 08:17:18;;;;;;;3.35;1.85;;;25.40;99.90;;;;;;5058755;28;20231;-64
2022/09/25 08:19:47;;;;;;;3.40;1.48;;;25.40;99.90;;;;;;5114021;27;20187;-65
2022/09/25 08:22:13;;;;;;;2.78;1.58;;;25.70;99.90;;;;;;5096389;28;20245;-65
2022/09/25 08:24:39;;;;;;;1.40;1.30;;;25.70;99.90;;;;;;5083985;28;20634;-64
2022/09/25 08:27:06;;;;;;;3.83;1.70;;;24.40;99.90;;;;;;5094673;28;20217;-65
2022/09/25 08:29:32;;;;;;;1.40;1.13;;;22.80;99.90;;;;;;5113414;27;20645;-65
2022/09/25 08:31:58;;;;;;;2.50;1.48;;;21.60;99.90;;;;;;5087735;28;20183;-62
2022/09/25 08:34:23;;;;;;;3.38;1.70;;;21.20;99.90;;;;;;5097546;27;20176;-65
2022/09/25 08:36:49;;;;;;;2.58;2.00;;;20.90;99.90;;;;;;5083728;28;20211;-66
2022/09/25 08:39:16;;;;;;;3.20;1.60;;;20.40;99.90;;;;;;5101384;28;20663;-66
2022/09/25 08:41:48;;;;;;;3.63;1.80;;;19.20;99.90;;;;;;5077807;28;20191;-67
2022/09/25 08:44:32;;;;;;;3.65;1.20;;;18.40;99.90;;;;;;5096546;27;20669;-66
2022/09/25 08:50:07;;;;;;;2.50;1.17;;;17.30;99.90;;;;;;5116111;27;20550;-65
2022/09/25 08:52:34;;;;;;;8.35;1.67;;;17.10;99.90;;;;;;5113556;27;20180;-64
2022/09/25 08:54:59;;;;;;;4.15;2.78;;;17.10;99.90;;;;;;5069638;28;20187;-65
2022/09/25 08:57:39;;;;;;;1.00;1.00;;;16.90;99.90;;;;;;5094947;28;20200;-65
2022/09/25 09:00:13;;;;;;;4.50;2.03;;;16.80;99.90;;;;;;5093816;28;20198;-64
2022/09/25 09:02:46;;;;;;;3.80;2.97;;;16.90;99.90;;;;;;5087327;28;20176;-62
2022/09/25 09:05:34;;;;;;;5.43;2.88;;;17.10;99.90;;;;;;5106908;27;20180;-62
2022/09/25 09:08:05;;;;;;;4.55;1.38;;;17.00;99.90;;;;;;5107895;27;20175;-63
2022/09/25 09:10:36;;;;;;;2.20;1.33;;;16.90;99.90;;;;;;5103466;27;20189;-67
2022/09/25 09:13:21;;;;;;;2.17;1.25;;;17.00;99.90;;;;;;5087491;28;20186;-65
2022/09/25 09:15:55;;;;;;;3.85;1.98;;;17.20;99.90;;;;;;5098661;28;20707;-67
2022/09/25 09:18:30;;;;;;;5.57;1.23;;;17.20;99.90;;;;;;5085057;28;20187;-64
2022/09/25 09:21:06;;;;;;;4.13;1.50;;;17.20;99.90;;;;;;5080367;28;20172;-65
2022/09/25 09:23:52;;;;;;;2.25;1.30;;;16.80;99.90;;;;;;5100442;28;20177;-64
2022/09/25 09:26:32;;;;;;;2.38;0.95;;;16.70;99.90;;;;;;5055188;28;20593;-63
2022/09/25 09:29:19;;;;;;;1.10;0.82;;;17.00;99.90;;;;;;5096696;28;20602;-64
2022/09/25 09:32:26;;;;;;;4.57;1.30;;;17.30;99.90;;;;;;5102862;28;20187;-64
2022/09/25 09:35:02;;;;;;;3.42;1.00;;;17.20;99.90;;;;;;5054896;28;20206;-64
2022/09/25 09:37:34;;;;;;;4.57;1.10;;;17.40;99.90;;;;;;5110829;28;20199;-66
2022/09/25 09:40:21;;;;;;;7.85;2.30;;;17.60;99.90;;;;;;5086302;28;20188;-67
2022/09/25 09:43:14;;;;;;;0.70;0.70;;;17.30;99.90;;;;;;5084145;28;20554;-65
2022/09/25 09:45:52;;;;;;;2.22;1.50;;;17.30;99.90;;;;;;5110201;28;20176;-65
2022/09/25 09:48:38;;;;;;;1.23;1.13;;;17.40;99.90;;;;;;5107902;28;20177;-64
2022/09/25 09:51:14;;;;;;;7.03;1.17;;;17.50;99.90;;;;;;5088922;28;20184;-65
2022/09/25 09:53:45;;;;;;;4.03;1.00;;;17.50;99.90;;;;;;5110376;28;20504;-65
2022/09/25 09:56:17;;;;;;;1.98;0.70;;;17.50;99.90;;;;;;5092958;28;20168;-64
2022/09/25 09:59:11;;;;;;;0.85;0.85;;;17.70;99.90;;;;;;5110429;27;20181;-65
2022/09/25 10:01:39;;;;;;;2.80;0.98;;;17.70;99.90;;;;;;5108517;27;20664;-67
2022/09/25 10:04:09;;;;;;;3.85;1.00;;;17.80;99.90;;;;;;5108501;28;20189;-64
2022/09/25 10:06:38;;;;;;;3.08;1.10;;;17.80;99.90;;;;;;5103454;27;20230;-64
2022/09/25 10:09:07;;;;;;;2.28;1.02;;;17.90;99.90;;;;;;5101776;27;20275;-63
2022/09/25 10:11:33;;;;;;;0.85;0.85;;;18.20;99.90;;;;;;5115467;27;20168;-63
2022/09/25 10:14:02;;;;;;;0.70;0.70;;;18.10;99.90;;;;;;5097978;28;20233;-62
2022/09/25 10:16:29;;;;;;;2.85;1.05;;;18.20;99.90;;;;;;5085387;28;20214;-63
2022/09/25 10:19:30;;;;;;;0.80;0.80;;;18.00;99.90;;;;;;5101175;27;20193;-63
2022/09/25 10:22:13;;;;;;;2.10;1.90;;;18.20;99.90;;;;;;5079182;27;20193;-65
2022/09/25 10:24:53;;;;;;;2.90;0.90;;;18.50;99.90;;;;;;5103611;28;20187;-66
2022/09/25 10:27:47;;;;;;;0.95;0.95;;;18.70;99.90;;;;;;5088808;28;20629;-65
2022/09/25 10:30:21;;;;;;;1.25;0.98;;;18.70;99.90;;;;;;5104627;28;20176;-65
2022/09/25 10:33:08;;;;;;;3.72;1.50;;;18.70;99.90;;;;;;5109991;28;20184;-65
2022/09/25 10:35:37;;;;;;;2.40;0.98;;;19.00;99.90;;;;;;5116264;27;20168;-65
2022/09/25 10:38:05;;;;;;;1.30;0.90;;;18.80;99.90;;;;;;5104383;27;20199;-65
2022/09/25 10:40:38;;;;;;;1.15;0.82;;;18.50;99.90;;;;;;5112207;27;20192;-64
2022/09/25 10:43:06;;;;;;;3.60;0.95;;;18.30;99.90;;;;;;5090119;28;20187;-64
2022/09/25 10:45:34;;;;;;;0.77;0.77;;;18.00;99.90;;;;;;5108578;27;20206;-65
2022/09/25 10:51:09;;;;;;;4.25;0.70;;;18.40;99.90;;;;;;5081343;27;20195;-66
2022/09/25 10:53:34;;;;;;;3.13;1.23;;;18.50;99.90;;;;;;5081176;27;20191;-69
2022/09/25 10:56:08;;;;;;;0.93;0.93;;;18.50;99.90;;;;;;5111791;28;20264;-64
2022/09/25 10:59:12;;;;;;;1.35;1.00;;;18.40;99.90;;;;;;5107497;28;20264;-66
2022/09/25 11:01:41;;;;;;;3.40;1.52;;;18.30;99.90;;;;;;5099601;27;20698;-65
2022/09/25 11:04:29;;;;;;;2.30;1.00;;;18.40;99.90;;;;;;5096780;28;20535;-65
2022/09/25 11:07:01;;;;;;;2.83;1.40;;;18.50;99.90;;;;;;5108580;28;20215;-64
2022/09/25 11:09:28;;;;;;;2.80;1.95;;;18.40;99.90;;;;;;5114898;27;20192;-64
2022/09/25 11:12:18;;;;;;;3.47;1.83;;;18.30;99.90;;;;;;5089735;28;20291;-64
2022/09/25 11:15:00;;;;;;;3.65;1.90;;;18.30;99.90;;;;;;5109599;28;20246;-68
2022/09/25 11:17:45;;;;;;;2.88;2.55;;;18.30;99.90;;;;;;5117246;27;20200;-68
2022/09/25 11:20:28;;;;;;;8.35;2.78;;;18.50;99.90;;;;;;5114736;27;20548;-68
2022/09/25 11:23:21;;;;;;;6.95;3.80;;;18.80;99.90;;;;;;5113621;28;20171;-68
2022/09/25 11:26:10;;;;;;;3.03;2.50;;;19.00;99.90;;;;;;5092160;28;20298;-68
2022/09/25 11:28:38;;;;;;;2.90;2.75;;;19.10;99.90;;;;;;5108774;27;20222;-71
2022/09/25 11:31:23;;;;;;;5.03;2.15;;;18.70;99.90;;;;;;5109831;28;20220;-64
2022/09/25 11:34:03;;;;;;;4.50;3.45;;;18.50;99.90;;;;;;5105917;28;20183;-64
2022/09/25 11:36:55;;;;;;;3.25;2.00;;;17.60;99.90;;;;;;5093841;28;20290;-63
2022/09/25 11:42:49;;;;;;;2.67;2.08;;;17.20;99.90;;;;;;5110088;28;20186;-71
2022/09/25 11:45:39;;;;;;;2.95;2.78;;;17.20;99.90;;;;;;5102960;28;20641;-66
2022/09/25 11:48:31;;;;;;;4.43;2.35;;;17.20;99.90;;;;;;5086838;28;20660;-67
2022/09/25 11:51:28;;;;;;;2.13;1.90;;;17.10;99.90;;;;;;5102195;27;20172;-63
2022/09/25 11:54:12;;;;;;;1.63;1.60;;;17.20;99.90;;;;;;5117569;27;20183;-62
2022/09/25 11:57:02;;;;;;;1.85;1.75;;;17.40;99.90;;;;;;5083062;28;20196;-63
2022/09/25 12:00:25;;;;;;;2.30;1.85;;;18.00;99.90;;;;;;5101422;28;20184;-63
2022/09/25 12:03:09;;;;;;;2.40;1.70;;;18.50;99.90;;;;;;5043840;28;20554;-63
2022/09/25 12:05:34;;;;;;;1.20;1.20;;;18.80;99.90;;;;;;5086325;28;20181;-63
2022/09/25 12:08:36;;;;;;;1.55;1.15;;;18.80;99.90;;;;;;5083927;27;20183;-62
2022/09/25 12:11:40;;;;;;;9.85;1.23;;;18.60;99.90;;;;;;5028364;28;20197;-62
2022/09/25 12:14:30;;;;;;;1.10;1.08;;;18.50;99.90;;;;;;5111413;27;20267;-65
2022/09/25 12:17:39;;;;;;;2.13;1.25;;;18.20;99.90;;;;;;5100501;28;20208;-65
2022/09/25 12:20:25;;;;;;;2.35;0.88;;;18.10;99.90;;;;;;5064030;28;20614;-65
2022/09/25 12:22:53;;;;;;;1.67;1.38;;;18.00;99.90;;;;;;5110218;27;20262;-68
2022/09/25 12:25:49;;;;;;;1.42;1.30;;;18.30;99.90;;;;;;5102444;28;20176;-68
2022/09/25 12:28:21;;;;;;;10.20;1.88;;;18.50;99.90;;;;;;5089314;27;20175;-67
2022/09/25 12:31:03;;;;;;;2.40;1.00;;;18.50;99.90;;;;;;5111058;27;20191;-66
2022/09/25 12:33:31;;;;;;;2.90;0.93;;;18.50;99.90;;;;;;5110578;27;20175;-68
2022/09/25 12:36:07;;;;;;;1.33;0.63;;;18.50;99.90;;;;;;5109651;27;20169;-68
2022/09/25 12:38:46;;;;;;;2.38;0.82;;;18.40;99.90;;;;;;5091627;28;20537;-68
2022/09/25 12:41:34;;;;;;;0.60;0.60;;;18.50;99.90;;;;;;5097006;28;20184;-68
2022/09/25 12:44:23;;;;;;;0.57;0.57;;;18.80;99.90;;;;;;5096602;28;20321;-67
2022/09/25 12:46:55;;;;;;;0.95;0.50;;;18.70;99.90;;;;;;5085591;28;20191;-67
2022/09/25 12:49:33;;;;;;;0.55;0.55;;;18.90;99.90;;;;;;5078700;27;20644;-66
2022/09/25 12:52:09;;;;;;;4.05;0.82;;;19.00;99.90;;;;;;5084123;28;20221;-66
2022/09/25 12:54:46;;;;;;;0.75;0.75;;;18.90;99.90;;;;;;5103354;28;20636;-66
2022/09/25 12:57:37;;;;;;;1.52;0.73;;;18.90;99.90;;;;;;5101456;28;20691;-67
2022/09/25 13:00:04;;;;;;;1.00;0.45;;;19.00;99.90;;;;;;5104826;27;20176;-66
2022/09/25 13:02:48;;;;;;;0.98;0.98;;;18.80;99.90;;;;;;5086518;28;20178;-66
2022/09/25 13:05:22;;;;;;;0.68;0.60;;;18.70;99.90;;;;;;5075286;28;20187;-67
2022/09/25 13:08:22;;;;;;;0.70;0.70;;;18.80;99.90;;;;;;5088661;28;20197;-66
2022/09/25 13:11:12;;;;;;;2.17;0.80;;;18.90;99.90;;;;;;5095608;28;20207;-66
2022/09/25 13:13:50;;;;;;;0.80;0.80;;;19.00;99.90;;;;;;5108817;27;20519;-66
2022/09/25 13:16:16;;;;;;;0.70;0.70;;;19.00;99.90;;;;;;5093036;28;20651;-61
2022/09/25 13:19:11;;;;;;;0.68;0.68;;;18.90;99.90;;;;;;5062484;28;20645;-62
2022/09/25 13:21:44;;;;;;;1.35;0.70;;;18.60;99.90;;;;;;5096017;28;20217;-62
2022/09/25 13:24:15;;;;;;;1.33;0.60;;;18.50;99.90;;;;;;5097777;28;20538;-62
2022/09/25 13:26:49;;;;;;;0.82;0.80;;;18.20;99.90;;;;;;5109798;28;20180;-62
2022/09/25 13:29:34;;;;;;;0.70;0.70;;;17.80;99.90;;;;;;5112648;28;20180;-63
2022/09/25 13:32:11;;;;;;;2.17;0.80;;;17.80;99.90;;;;;;5098029;28;20176;-62
2022/09/25 13:34:39;;;;;;;0.60;0.60;;;17.80;99.90;;;;;;5105318;28;20176;-62